createdAt,value
2023-04-08T00:01:23.949Z,41.51
2023-04-08T00:03:54.102Z,41.59
2023-04-08T00:06:28.904Z,41.61
2023-04-08T00:09:05.139Z,41.70
2023-04-08T00:11:34.063Z,41.76
2023-04-08T00:14:09.719Z,41.85
2023-04-08T00:16:40.642Z,41.87
2023-04-08T00:19:09.481Z,41.75
2023-04-08T00:21:38.397Z,41.86
2023-04-08T00:24:09.104Z,41.97
2023-04-08T00:26:38.299Z,42.00
2023-04-08T00:29:19.301Z,42.01
2023-04-08T00:31:49.949Z,42.00
2023-04-08T00:34:23.024Z,42.06
2023-04-08T00:36:53.003Z,42.02
2023-04-08T00:39:22.053Z,41.98
2023-04-08T00:41:51.796Z,41.98
2023-04-08T00:44:20.909Z,41.94
2023-04-08T00:46:51.103Z,41.84
2023-04-08T00:49:21.324Z,41.92
2023-04-08T00:51:52.565Z,41.76
2023-04-08T00:57:51.618Z,42.21
2023-04-08T01:00:23.651Z,42.49
2023-04-08T01:03:04.257Z,42.46
2023-04-08T01:05:48.783Z,42.49
2023-04-08T01:08:17.546Z,42.57
2023-04-08T01:10:46.165Z,42.63
2023-04-08T01:13:15.031Z,42.67
2023-04-08T01:15:43.739Z,42.77
2023-04-08T01:18:13.736Z,42.71
2023-04-08T01:20:42.669Z,42.66
2023-04-08T01:23:13.696Z,42.68
2023-04-08T01:25:54.722Z,42.64
2023-04-08T01:28:24.021Z,42.59
2023-04-08T01:30:53.086Z,42.69
2023-04-08T01:33:22.479Z,42.85
2023-04-08T01:35:52.198Z,43.01
2023-04-08T01:38:22.085Z,43.16
2023-04-08T01:40:50.448Z,43.21
2023-04-08T01:43:18.928Z,43.15
2023-04-08T01:45:47.814Z,43.22
2023-04-08T01:48:16.556Z,43.16
2023-04-08T01:50:45.209Z,42.88
2023-04-08T01:53:15.126Z,42.62
2023-04-08T01:55:46.232Z,42.19
2023-04-08T01:58:18.648Z,41.95
2023-04-08T02:00:47.476Z,42.30
2023-04-08T02:03:18.029Z,42.33
2023-04-08T02:05:48.414Z,42.15
2023-04-08T02:08:16.827Z,42.05
2023-04-08T02:10:45.235Z,41.93
2023-04-08T02:13:13.550Z,41.80
2023-04-08T02:15:43.097Z,41.79
2023-04-08T02:18:17.274Z,41.74
2023-04-08T02:21:07.193Z,41.73
2023-04-08T02:23:42.293Z,41.73
2023-04-08T02:26:14.741Z,41.74
2023-04-08T02:28:43.512Z,41.85
2023-04-08T02:31:16.337Z,41.85
2023-04-08T02:33:47.800Z,41.89
2023-04-08T02:36:16.250Z,41.85
2023-04-08T02:38:50.570Z,41.90
2023-04-08T02:41:21.666Z,41.91
2023-04-08T02:43:50.103Z,41.81
2023-04-08T02:46:21.167Z,41.73
2023-04-08T02:48:50.848Z,41.67
2023-04-08T02:51:19.332Z,41.64
2023-04-08T02:53:47.637Z,41.67
2023-04-08T02:56:16.426Z,41.71
2023-04-08T02:58:44.910Z,41.75
2023-04-08T03:01:14.445Z,41.82
2023-04-08T03:03:46.002Z,41.91
2023-04-08T03:06:14.588Z,42.05
2023-04-08T03:08:43.322Z,42.01
2023-04-08T03:11:13.028Z,42.01
2023-04-08T03:13:41.930Z,42.15
2023-04-08T03:16:11.020Z,42.06
2023-04-08T03:18:40.742Z,42.11
2023-04-08T03:21:09.450Z,42.20
2023-04-08T03:23:37.852Z,42.17
2023-04-08T03:26:07.144Z,42.19
2023-04-08T03:28:35.955Z,42.19
2023-04-08T03:31:04.894Z,42.32
2023-04-08T03:33:33.959Z,42.25
2023-04-08T03:36:02.337Z,42.21
2023-04-08T03:38:31.707Z,42.28
2023-04-08T03:41:00.384Z,42.32
2023-04-08T03:43:29.444Z,42.33
2023-04-08T03:45:57.876Z,42.26
2023-04-08T03:48:26.673Z,42.22
2023-04-08T03:50:55.261Z,42.19
2023-04-08T03:53:24.227Z,42.12
2023-04-08T03:55:53.347Z,42.11
2023-04-08T03:58:21.770Z,42.13
2023-04-08T04:00:50.752Z,42.07
2023-04-08T04:03:20.290Z,42.04
2023-04-08T04:05:54.040Z,42.03
2023-04-08T04:08:23.194Z,42.03
2023-04-08T04:10:52.254Z,41.96
2023-04-08T04:13:22.194Z,41.94
2023-04-08T04:15:51.239Z,41.97
2023-04-08T04:18:19.961Z,42.04
2023-04-08T04:20:48.318Z,42.08
2023-04-08T04:23:16.830Z,42.11
2023-04-08T04:25:45.542Z,42.24
2023-04-08T04:28:16.621Z,42.35
2023-04-08T04:30:47.683Z,42.40
2023-04-08T04:33:16.310Z,42.42
2023-04-08T04:35:45.741Z,42.50
2023-04-08T04:38:14.495Z,42.51
2023-04-08T04:40:43.084Z,42.57
2023-04-08T04:43:12.276Z,42.56
2023-04-08T04:45:47.546Z,42.56
2023-04-08T04:48:16.532Z,42.58
2023-04-08T04:50:45.444Z,42.69
2023-04-08T04:53:19.156Z,42.72
2023-04-08T04:55:49.147Z,42.73
2023-04-08T04:58:18.300Z,42.84
2023-04-08T05:00:47.139Z,42.84
2023-04-08T05:03:16.934Z,42.81
2023-04-08T05:05:55.375Z,42.85
2023-04-08T05:08:25.943Z,42.87
2023-04-08T05:10:56.887Z,42.91
2023-04-08T05:13:25.844Z,43.02
2023-04-08T05:15:56.444Z,43.05
2023-04-08T05:18:25.257Z,42.92
2023-04-08T05:20:54.072Z,42.94
2023-04-08T05:23:22.764Z,43.06
2023-04-08T05:25:51.674Z,43.16
2023-04-08T05:28:21.918Z,43.32
2023-04-08T05:30:51.773Z,43.47
2023-04-08T05:33:20.653Z,43.64
2023-04-08T05:35:53.423Z,43.64
2023-04-08T05:38:22.259Z,43.62
2023-04-08T05:40:50.944Z,43.70
2023-04-08T05:43:19.647Z,43.74
2023-04-08T05:45:49.271Z,43.77
2023-04-08T05:48:18.065Z,43.78
2023-04-08T05:50:48.714Z,43.90
2023-04-08T05:53:17.746Z,44.03
2023-04-08T05:55:46.495Z,44.16
2023-04-08T05:58:14.993Z,44.26
2023-04-08T06:00:43.588Z,44.36
2023-04-08T06:03:20.312Z,44.47
2023-04-08T06:05:51.637Z,44.54
2023-04-08T06:08:21.479Z,44.63
2023-04-08T06:10:53.562Z,44.75
2023-04-08T06:13:26.071Z,44.93
2023-04-08T06:15:54.830Z,44.89
2023-04-08T06:18:30.794Z,44.92
2023-04-08T06:21:00.002Z,44.81
2023-04-08T06:23:28.669Z,44.92
2023-04-08T06:25:57.645Z,44.96
2023-04-08T06:28:26.513Z,44.93
2023-04-08T06:30:56.122Z,44.93
2023-04-08T06:33:24.985Z,45.08
2023-04-08T06:36:02.192Z,45.24
2023-04-08T06:38:32.487Z,45.30
2023-04-08T06:41:04.675Z,45.38
2023-04-08T06:43:33.682Z,45.29
2023-04-08T06:46:02.183Z,45.46
2023-04-08T06:48:32.785Z,45.40
2023-04-08T06:51:01.955Z,45.37
2023-04-08T06:53:31.677Z,45.46
2023-04-08T06:56:00.737Z,45.24
2023-04-08T06:58:31.549Z,45.32
2023-04-08T07:01:01.256Z,45.51
2023-04-08T07:03:31.252Z,45.66
2023-04-08T07:06:00.507Z,45.66
2023-04-08T07:08:29.067Z,45.71
2023-04-08T07:11:01.247Z,45.85
2023-04-08T07:13:29.994Z,46.03
2023-04-08T07:15:58.588Z,46.28
2023-04-08T07:18:27.823Z,46.46
2023-04-08T07:20:56.685Z,46.67
2023-04-08T07:23:28.168Z,46.88
2023-04-08T07:25:56.985Z,47.01
2023-04-08T07:28:26.023Z,47.11
2023-04-08T07:30:54.813Z,47.00
2023-04-08T07:33:24.068Z,47.01
2023-04-08T07:35:53.364Z,47.04
2023-04-08T07:38:21.985Z,47.13
2023-04-08T07:40:50.952Z,47.26
2023-04-08T07:43:19.705Z,47.23
2023-04-08T07:45:48.750Z,47.19
2023-04-08T07:48:17.627Z,47.15
2023-04-08T07:51:09.016Z,47.01
2023-04-08T07:53:37.540Z,47.38
2023-04-08T07:56:15.140Z,47.59
2023-04-08T07:58:44.029Z,47.79
2023-04-08T08:01:16.603Z,47.71
2023-04-08T08:03:48.373Z,47.70
2023-04-08T08:06:17.531Z,47.80
2023-04-08T08:08:47.383Z,47.96
2023-04-08T08:11:16.112Z,47.97
2023-04-08T08:13:44.836Z,47.96
2023-04-08T08:16:14.357Z,48.03
2023-04-08T08:18:43.041Z,48.07
2023-04-08T08:21:16.236Z,48.25
2023-04-08T08:23:45.382Z,48.31
2023-04-08T08:26:13.958Z,48.51
2023-04-08T08:28:46.321Z,48.65
2023-04-08T08:31:14.794Z,48.80
2023-04-08T08:33:43.659Z,48.98
2023-04-08T08:36:14.939Z,49.09
2023-04-08T08:38:43.606Z,49.24
2023-04-08T08:41:12.203Z,49.26
2023-04-08T08:43:42.814Z,49.11
2023-04-08T08:46:12.432Z,49.21
2023-04-08T08:48:41.191Z,49.39
2023-04-08T08:51:10.212Z,49.47
2023-04-08T08:53:45.604Z,49.59
2023-04-08T08:56:18.769Z,49.78
2023-04-08T08:58:48.093Z,49.92
2023-04-08T09:01:30.420Z,50.03
2023-04-08T09:04:09.061Z,50.10
2023-04-08T09:06:39.869Z,50.07
2023-04-08T09:09:12.262Z,50.12
2023-04-08T09:11:41.666Z,50.29
2023-04-08T09:14:18.768Z,50.39
2023-04-08T09:16:48.047Z,50.40
2023-04-08T09:19:17.016Z,50.38
2023-04-08T09:21:47.936Z,50.43
2023-04-08T09:24:29.568Z,50.60
2023-04-08T09:26:58.336Z,50.80
2023-04-08T09:29:30.053Z,50.87
2023-04-08T09:32:01.445Z,50.99
2023-04-08T09:34:32.708Z,50.97
2023-04-08T09:37:02.253Z,51.11
2023-04-08T09:39:32.576Z,51.12
2023-04-08T09:42:04.090Z,51.00
2023-04-08T09:44:32.931Z,50.90
2023-04-08T09:47:02.429Z,50.75
2023-04-08T09:49:38.711Z,50.67
2023-04-08T09:52:11.673Z,50.60
2023-04-08T09:54:40.584Z,50.86
2023-04-08T09:57:17.058Z,51.09
2023-04-08T09:59:51.651Z,51.21
2023-04-08T10:02:21.810Z,51.16
2023-04-08T10:04:50.647Z,51.19
2023-04-08T10:07:19.651Z,51.30
2023-04-08T10:09:48.502Z,51.38
2023-04-08T10:12:17.351Z,51.38
2023-04-08T10:15:04.986Z,51.51
2023-04-08T10:17:37.201Z,51.43
2023-04-08T10:20:06.199Z,51.24
2023-04-08T10:22:35.092Z,51.18
2023-04-08T10:25:15.918Z,50.92
2023-04-08T10:27:44.944Z,50.60
2023-04-08T10:30:29.142Z,50.74
2023-04-08T10:33:00.237Z,50.83
2023-04-08T10:35:30.399Z,50.73
2023-04-08T10:37:59.383Z,50.58
2023-04-08T10:40:28.208Z,50.55
2023-04-08T10:42:57.032Z,50.59
2023-04-08T10:45:30.292Z,50.76
2023-04-08T10:48:19.640Z,50.86
2023-04-08T10:50:57.972Z,50.63
2023-04-08T10:53:27.717Z,50.46
2023-04-08T10:56:15.813Z,50.30
2023-04-08T10:58:50.146Z,50.28
2023-04-08T11:01:19.123Z,50.05
2023-04-08T11:03:47.967Z,50.08
2023-04-08T11:06:16.759Z,50.17
2023-04-08T11:08:45.970Z,50.20
2023-04-08T11:11:15.170Z,49.90
2023-04-08T11:13:52.622Z,49.91
2023-04-08T11:16:23.750Z,49.99
2023-04-08T11:18:52.466Z,49.97
2023-04-08T11:21:26.180Z,50.06
2023-04-08T11:23:55.224Z,50.15
2023-04-08T11:26:23.909Z,50.18
2023-04-08T11:28:54.506Z,50.22
2023-04-08T11:31:24.914Z,50.43
2023-04-08T11:33:57.137Z,50.59
2023-04-08T11:36:27.527Z,50.76
2023-04-08T11:38:56.222Z,51.14
2023-04-08T11:41:36.181Z,51.41
2023-04-08T11:44:05.830Z,51.85
2023-04-08T11:46:35.740Z,52.24
2023-04-08T11:49:05.570Z,52.35
2023-04-08T11:51:55.210Z,52.67
2023-04-08T11:54:30.478Z,52.88
2023-04-08T11:56:59.483Z,52.91
2023-04-08T11:59:29.937Z,53.06
2023-04-08T12:01:59.381Z,53.21
2023-04-08T12:04:28.185Z,53.13
2023-04-08T12:06:58.378Z,52.97
2023-04-08T12:09:28.699Z,52.80
2023-04-08T12:11:58.359Z,52.87
2023-04-08T12:14:28.431Z,52.85
2023-04-08T12:16:57.357Z,52.85
2023-04-08T12:19:33.886Z,52.88
2023-04-08T12:22:03.903Z,52.73
2023-04-08T12:24:32.768Z,52.71
2023-04-08T12:27:02.852Z,52.76
2023-04-08T12:29:32.794Z,52.48
2023-04-08T12:32:02.746Z,52.38
2023-04-08T12:34:33.118Z,52.59
2023-04-08T12:37:02.747Z,53.06
2023-04-08T12:39:33.707Z,53.22
2023-04-08T12:42:03.818Z,53.29
2023-04-08T12:44:32.517Z,53.19
2023-04-08T12:47:01.638Z,52.85
2023-04-08T12:49:30.980Z,52.50
2023-04-08T12:52:05.778Z,52.06
2023-04-08T12:54:34.542Z,51.72
2023-04-08T12:57:03.199Z,51.37
2023-04-08T12:59:33.822Z,51.10
2023-04-08T13:02:03.166Z,50.59
2023-04-08T13:04:31.889Z,50.25
2023-04-08T13:07:01.344Z,50.03
2023-04-08T13:09:31.015Z,49.94
2023-04-08T13:12:00.514Z,49.70
2023-04-08T13:14:31.880Z,48.88
2023-04-08T13:17:00.596Z,47.91
2023-04-08T13:19:31.665Z,47.30
2023-04-08T13:22:01.002Z,46.72
2023-04-08T13:24:30.116Z,46.15
2023-04-08T13:26:58.750Z,45.69
2023-04-08T13:29:28.738Z,45.37
2023-04-08T13:31:57.724Z,45.12
2023-04-08T13:34:26.506Z,44.85
2023-04-08T13:36:55.864Z,44.64
2023-04-08T13:39:25.206Z,44.53
2023-04-08T13:41:54.056Z,44.42
2023-04-08T13:44:22.925Z,44.17
2023-04-08T13:46:51.971Z,44.18
2023-04-08T13:49:21.050Z,44.09
2023-04-08T13:51:50.215Z,44.02
2023-04-08T13:54:24.296Z,44.03
2023-04-08T13:56:52.949Z,44.00
2023-04-08T13:59:21.642Z,43.97
2023-04-08T14:01:54.362Z,44.01
2023-04-08T14:04:23.519Z,43.63
2023-04-08T14:06:53.436Z,43.51
2023-04-08T14:09:22.028Z,43.40
2023-04-08T14:11:51.540Z,43.43
2023-04-08T14:14:20.194Z,43.53
2023-04-08T14:16:51.722Z,43.64
2023-04-08T14:19:20.652Z,43.71
2023-04-08T14:21:49.414Z,44.03
2023-04-08T14:24:18.436Z,44.53
2023-04-08T14:26:46.992Z,44.84
2023-04-08T14:29:16.381Z,44.89
2023-04-08T14:31:44.997Z,44.99
2023-04-08T14:34:13.675Z,45.14
2023-04-08T14:36:43.419Z,45.22
2023-04-08T14:39:12.630Z,45.38
2023-04-08T14:41:41.671Z,45.44
2023-04-08T14:44:10.417Z,45.37
2023-04-08T14:46:40.004Z,45.39
2023-04-08T14:49:09.088Z,45.43
2023-04-08T14:51:38.337Z,45.51
2023-04-08T14:54:07.953Z,45.65
2023-04-08T14:56:37.329Z,45.64
2023-04-08T14:59:06.394Z,45.58
2023-04-08T15:01:36.118Z,45.52
2023-04-08T15:04:05.285Z,45.45
2023-04-08T15:06:34.073Z,45.45
2023-04-08T15:09:02.774Z,45.49
2023-04-08T15:11:31.429Z,45.44
2023-04-08T15:14:08.790Z,45.37
2023-04-08T15:16:38.582Z,45.26
2023-04-08T15:19:07.337Z,45.26
2023-04-08T15:21:36.308Z,45.10
2023-04-08T15:24:04.930Z,45.07
2023-04-08T15:26:33.623Z,45.10
2023-04-08T15:29:04.521Z,45.05
2023-04-08T15:31:33.886Z,45.07
2023-04-08T15:34:03.811Z,45.10
2023-04-08T15:36:32.932Z,44.95
2023-04-08T15:39:01.890Z,44.68
2023-04-08T15:41:32.706Z,44.59
2023-04-08T15:44:01.433Z,44.82
2023-04-08T15:46:30.270Z,45.00
2023-04-08T15:49:00.886Z,44.89
2023-04-08T15:51:30.129Z,44.86
2023-04-08T15:53:58.988Z,44.98
2023-04-08T15:56:29.942Z,45.10
2023-04-08T15:59:01.211Z,45.15
2023-04-08T16:01:30.255Z,45.21
2023-04-08T16:04:01.269Z,45.33
2023-04-08T16:06:30.681Z,45.38
2023-04-08T16:08:59.466Z,45.33
2023-04-08T16:11:36.385Z,45.19
2023-04-08T16:14:07.242Z,45.08
2023-04-08T16:16:38.884Z,45.05
2023-04-08T16:19:13.175Z,44.92
2023-04-08T16:21:42.006Z,44.89
2023-04-08T16:24:10.825Z,44.96
2023-04-08T16:26:39.748Z,44.86
2023-04-08T16:29:08.912Z,44.91
2023-04-08T16:31:37.621Z,44.84
2023-04-08T16:34:06.328Z,44.78
2023-04-08T16:36:34.929Z,44.92
2023-04-08T16:39:04.323Z,44.88
2023-04-08T16:41:33.334Z,44.80
2023-04-08T16:44:02.218Z,44.87
2023-04-08T16:46:31.149Z,44.76
2023-04-08T16:48:59.968Z,44.73
2023-04-08T16:51:29.380Z,44.65
2023-04-08T16:53:59.203Z,44.43
2023-04-08T16:56:30.037Z,44.38
2023-04-08T16:58:58.734Z,44.19
2023-04-08T17:01:29.848Z,44.03
2023-04-08T17:03:58.810Z,43.89
2023-04-08T17:06:27.816Z,43.88
2023-04-08T17:08:57.777Z,43.84
2023-04-08T17:11:26.614Z,43.74
2023-04-08T17:13:55.338Z,43.54
2023-04-08T17:16:27.440Z,43.51
2023-04-08T17:18:56.977Z,43.49
2023-04-08T17:21:27.191Z,43.67
2023-04-08T17:23:57.021Z,43.77
2023-04-08T17:26:26.609Z,43.80
2023-04-08T17:28:55.216Z,43.83
2023-04-08T17:31:24.170Z,43.81
2023-04-08T17:33:53.079Z,43.95
2023-04-08T17:36:21.711Z,44.06
2023-04-08T17:38:53.362Z,44.13
2023-04-08T17:41:37.965Z,44.23
2023-04-08T17:44:12.047Z,44.30
2023-04-08T17:46:41.897Z,44.35
2023-04-08T17:49:14.988Z,44.33
2023-04-08T17:51:44.359Z,44.23
2023-04-08T17:54:13.240Z,44.25
2023-04-08T17:56:49.048Z,44.12
2023-04-08T17:59:18.208Z,43.85
2023-04-08T18:01:48.269Z,43.38
2023-04-08T18:04:17.983Z,43.20
2023-04-08T18:06:46.834Z,43.18
2023-04-08T18:09:21.382Z,43.07
2023-04-08T18:11:50.421Z,43.12
2023-04-08T18:14:19.056Z,43.21
2023-04-08T18:16:55.045Z,43.33
2023-04-08T18:19:26.457Z,43.46
2023-04-08T18:21:55.859Z,43.41
2023-04-08T18:24:24.510Z,43.25
2023-04-08T18:27:03.561Z,43.11
2023-04-08T18:29:33.576Z,43.19
2023-04-08T18:32:02.103Z,43.18
2023-04-08T18:34:32.264Z,43.20
2023-04-08T18:37:05.516Z,43.30
2023-04-08T18:39:34.317Z,43.24
2023-04-08T18:42:04.002Z,43.21
2023-04-08T18:44:33.416Z,43.25
2023-04-08T18:47:02.670Z,43.28
2023-04-08T18:49:34.161Z,43.49
2023-04-08T18:52:03.688Z,43.57
2023-04-08T18:54:32.881Z,43.71
2023-04-08T18:57:03.134Z,43.94
2023-04-08T18:59:32.980Z,44.22
2023-04-08T19:02:01.830Z,44.33
2023-04-08T19:04:31.247Z,44.42
2023-04-08T19:06:59.855Z,44.36
2023-04-08T19:09:28.478Z,44.37
2023-04-08T19:11:57.692Z,44.50
2023-04-08T19:14:26.714Z,44.59
2023-04-08T19:16:56.999Z,44.50
2023-04-08T19:19:26.358Z,44.50
2023-04-08T19:21:55.468Z,44.41
2023-04-08T19:24:26.720Z,44.26
2023-04-08T19:26:55.501Z,44.22
2023-04-08T19:29:33.870Z,43.78
2023-04-08T19:32:04.395Z,43.65
2023-04-08T19:34:36.585Z,43.75
2023-04-08T19:37:06.710Z,43.75
2023-04-08T19:39:35.318Z,43.76
2023-04-08T19:42:04.468Z,43.75
2023-04-08T19:44:33.368Z,43.96
2023-04-08T19:47:01.946Z,44.04
2023-04-08T19:49:31.653Z,43.88
2023-04-08T19:52:00.052Z,43.66
2023-04-08T19:54:30.378Z,43.66
2023-04-08T19:56:59.487Z,43.46
2023-04-08T19:59:28.047Z,43.24
2023-04-08T20:01:56.915Z,43.11
2023-04-08T20:04:25.778Z,42.97
2023-04-08T20:06:54.301Z,43.02
2023-04-08T20:09:23.133Z,42.82
2023-04-08T20:11:51.634Z,42.55
2023-04-08T20:14:20.217Z,42.55
2023-04-08T20:16:48.801Z,42.35
2023-04-08T20:19:18.019Z,42.35
2023-04-08T20:21:49.105Z,42.54
2023-04-08T20:24:18.052Z,42.50
2023-04-08T20:26:46.694Z,42.44
2023-04-08T20:29:15.455Z,42.30
2023-04-08T20:31:45.083Z,42.39
2023-04-08T20:34:18.309Z,42.55
2023-04-08T20:36:48.060Z,42.54
2023-04-08T20:39:16.572Z,42.51
2023-04-08T20:41:45.028Z,42.41
2023-04-08T20:44:13.617Z,42.40
2023-04-08T20:46:47.893Z,42.67
2023-04-08T20:49:19.037Z,42.69
2023-04-08T20:51:47.673Z,42.68
2023-04-08T20:54:16.876Z,42.67
2023-04-08T20:56:45.252Z,42.76
2023-04-08T20:59:17.474Z,42.62
2023-04-08T21:01:48.435Z,42.57
2023-04-08T21:04:17.007Z,42.62
2023-04-08T21:06:45.706Z,42.75
2023-04-08T21:09:15.234Z,42.69
2023-04-08T21:11:43.645Z,42.71
2023-04-08T21:14:17.185Z,42.69
2023-04-08T21:16:46.793Z,42.64
2023-04-08T21:19:15.953Z,42.82
2023-04-08T21:21:50.108Z,42.84
2023-04-08T21:24:18.816Z,42.76
2023-04-08T21:26:47.324Z,42.81
2023-04-08T21:29:17.475Z,42.87
2023-04-08T21:31:46.057Z,42.85
2023-04-08T21:34:15.295Z,42.94
2023-04-08T21:36:46.603Z,42.97
2023-04-08T21:39:15.151Z,42.93
2023-04-08T21:41:43.803Z,42.83
2023-04-08T21:44:12.658Z,42.77
2023-04-08T21:46:41.329Z,42.88
2023-04-08T21:49:11.561Z,43.08
2023-04-08T21:51:41.214Z,42.92
2023-04-08T21:54:09.778Z,42.77
2023-04-08T21:56:38.891Z,42.68
2023-04-08T21:59:07.503Z,42.72
2023-04-08T22:01:37.588Z,42.56
2023-04-08T22:04:07.102Z,42.40
2023-04-08T22:06:35.903Z,42.37
2023-04-08T22:09:05.445Z,42.29
2023-04-08T22:11:33.902Z,42.07
2023-04-08T22:14:02.292Z,41.69
2023-04-08T22:16:32.430Z,41.48
2023-04-08T22:19:01.058Z,41.38
2023-04-08T22:21:29.596Z,41.37
2023-04-08T22:23:59.085Z,41.41
2023-04-08T22:26:27.958Z,41.27
2023-04-08T22:29:00.462Z,40.85
2023-04-08T22:31:29.884Z,40.56
2023-04-08T22:34:00.292Z,40.42
2023-04-08T22:36:28.859Z,40.38
2023-04-08T22:38:58.081Z,40.32
2023-04-08T22:41:26.794Z,40.25
2023-04-08T22:43:55.092Z,40.28
2023-04-08T22:46:24.651Z,40.34
2023-04-08T22:48:53.685Z,40.28
2023-04-08T22:51:23.106Z,40.27
2023-04-08T22:53:51.501Z,40.43
2023-04-08T22:56:19.868Z,40.28
2023-04-08T22:58:50.426Z,40.22
2023-04-08T23:01:21.460Z,40.18
2023-04-08T23:03:50.814Z,40.07
2023-04-08T23:06:19.991Z,39.90
2023-04-08T23:08:51.788Z,39.97
2023-04-08T23:11:20.380Z,39.99
2023-04-08T23:13:56.489Z,39.97
2023-04-08T23:16:25.279Z,39.75
2023-04-08T23:18:54.416Z,39.59
2023-04-08T23:21:27.324Z,39.45
2023-04-08T23:23:56.188Z,39.44
2023-04-08T23:26:25.635Z,39.44
2023-04-08T23:28:55.793Z,39.19
2023-04-08T23:31:24.499Z,39.46
2023-04-08T23:33:53.687Z,39.40
2023-04-08T23:36:23.333Z,39.11
2023-04-08T23:38:52.951Z,38.96
2023-04-08T23:41:21.501Z,39.00
2023-04-08T23:43:54.282Z,39.07
2023-04-08T23:46:22.945Z,38.98
2023-04-08T23:48:56.414Z,38.94
2023-04-08T23:51:26.879Z,38.96
2023-04-08T23:53:56.581Z,39.03
2023-04-08T23:56:25.199Z,38.99
2023-04-08T23:58:53.827Z,39.02
